sensor_id;sensor_type;location;lat;lon;timestamp;temperature;humidity
9837;DHT22;4957;51.412;6.724;2023-08-21T00:01:36;22.30;92.00
9837;DHT22;4957;51.412;6.724;2023-08-21T00:04:02;22.30;92.10
9837;DHT22;4957;51.412;6.724;2023-08-21T00:06:29;22.20;92.20
9837;DHT22;4957;51.412;6.724;2023-08-21T00:08:54;22.10;92.20
9837;DHT22;4957;51.412;6.724;2023-08-21T00:11:20;22.10;92.40
9837;DHT22;4957;51.412;6.724;2023-08-21T00:13:46;22.10;92.40
9837;DHT22;4957;51.412;6.724;2023-08-21T00:16:14;22.00;92.40
9837;DHT22;4957;51.412;6.724;2023-08-21T00:18:39;22.00;92.50
9837;DHT22;4957;51.412;6.724;2023-08-21T00:21:05;22.00;92.50
9837;DHT22;4957;51.412;6.724;2023-08-21T00:23:31;22.00;92.60
9837;DHT22;4957;51.412;6.724;2023-08-21T00:25:57;22.00;92.60
9837;DHT22;4957;51.412;6.724;2023-08-21T00:28:23;21.90;92.60
9837;DHT22;4957;51.412;6.724;2023-08-21T00:30:48;21.90;92.70
9837;DHT22;4957;51.412;6.724;2023-08-21T00:33:14;21.90;92.90
9837;DHT22;4957;51.412;6.724;2023-08-21T00:35:41;21.90;92.90
9837;DHT22;4957;51.412;6.724;2023-08-21T00:38:07;21.80;92.80
9837;DHT22;4957;51.412;6.724;2023-08-21T00:40:32;21.80;92.80
9837;DHT22;4957;51.412;6.724;2023-08-21T00:42:58;21.80;92.80
9837;DHT22;4957;51.412;6.724;2023-08-21T00:45:24;21.80;92.80
9837;DHT22;4957;51.412;6.724;2023-08-21T00:47:49;21.70;92.90
9837;DHT22;4957;51.412;6.724;2023-08-21T00:50:15;21.70;93.00
9837;DHT22;4957;51.412;6.724;2023-08-21T00:52:44;21.70;93.10
9837;DHT22;4957;51.412;6.724;2023-08-21T00:55:13;21.70;93.20
9837;DHT22;4957;51.412;6.724;2023-08-21T00:57:39;21.60;93.20
9837;DHT22;4957;51.412;6.724;2023-08-21T01:00:05;21.60;93.30
9837;DHT22;4957;51.412;6.724;2023-08-21T01:02:31;21.60;93.40
9837;DHT22;4957;51.412;6.724;2023-08-21T01:04:57;21.60;93.40
9837;DHT22;4957;51.412;6.724;2023-08-21T01:07:23;21.60;93.40
9837;DHT22;4957;51.412;6.724;2023-08-21T01:10:03;21.50;93.40
9837;DHT22;4957;51.412;6.724;2023-08-21T01:12:37;21.50;93.50
9837;DHT22;4957;51.412;6.724;2023-08-21T01:15:07;21.50;93.60
9837;DHT22;4957;51.412;6.724;2023-08-21T01:17:37;21.50;93.60
9837;DHT22;4957;51.412;6.724;2023-08-21T01:20:05;21.40;93.50
9837;DHT22;4957;51.412;6.724;2023-08-21T01:22:40;21.40;93.60
9837;DHT22;4957;51.412;6.724;2023-08-21T01:25:06;21.40;93.60
9837;DHT22;4957;51.412;6.724;2023-08-21T01:27:34;21.40;93.60
9837;DHT22;4957;51.412;6.724;2023-08-21T01:30:04;21.40;93.70
9837;DHT22;4957;51.412;6.724;2023-08-21T01:35:04;21.30;93.80
9837;DHT22;4957;51.412;6.724;2023-08-21T01:37:31;21.30;93.90
9837;DHT22;4957;51.412;6.724;2023-08-21T01:40:00;21.30;93.90
9837;DHT22;4957;51.412;6.724;2023-08-21T01:42:26;21.30;94.00
9837;DHT22;4957;51.412;6.724;2023-08-21T01:44:51;21.20;93.90
9837;DHT22;4957;51.412;6.724;2023-08-21T01:47:17;21.20;93.90
9837;DHT22;4957;51.412;6.724;2023-08-21T01:49:43;21.10;93.90
9837;DHT22;4957;51.412;6.724;2023-08-21T01:52:09;21.10;94.00
9837;DHT22;4957;51.412;6.724;2023-08-21T01:54:35;21.10;94.10
9837;DHT22;4957;51.412;6.724;2023-08-21T01:57:01;21.10;94.20
9837;DHT22;4957;51.412;6.724;2023-08-21T01:59:26;21.10;94.20
9837;DHT22;4957;51.412;6.724;2023-08-21T02:01:52;21.10;94.20
9837;DHT22;4957;51.412;6.724;2023-08-21T02:04:19;21.10;94.30
9837;DHT22;4957;51.412;6.724;2023-08-21T02:06:45;21.10;94.30
9837;DHT22;4957;51.412;6.724;2023-08-21T02:09:11;21.00;94.30
9837;DHT22;4957;51.412;6.724;2023-08-21T02:11:36;21.00;94.50
9837;DHT22;4957;51.412;6.724;2023-08-21T02:14:02;21.00;94.50
9837;DHT22;4957;51.412;6.724;2023-08-21T02:16:28;20.90;94.60
9837;DHT22;4957;51.412;6.724;2023-08-21T02:18:54;20.90;94.60
9837;DHT22;4957;51.412;6.724;2023-08-21T02:21:20;20.90;94.70
9837;DHT22;4957;51.412;6.724;2023-08-21T02:23:46;20.80;94.50
9837;DHT22;4957;51.412;6.724;2023-08-21T02:26:12;20.80;94.70
9837;DHT22;4957;51.412;6.724;2023-08-21T02:28:37;20.80;94.90
9837;DHT22;4957;51.412;6.724;2023-08-21T02:31:03;20.80;94.90
9837;DHT22;4957;51.412;6.724;2023-08-21T02:33:30;20.80;94.90
9837;DHT22;4957;51.412;6.724;2023-08-21T02:35:56;20.70;95.10
9837;DHT22;4957;51.412;6.724;2023-08-21T02:38:22;20.70;95.10
9837;DHT22;4957;51.412;6.724;2023-08-21T02:40:48;20.70;95.10
9837;DHT22;4957;51.412;6.724;2023-08-21T02:43:14;20.70;95.10
9837;DHT22;4957;51.412;6.724;2023-08-21T02:45:40;20.70;95.10
9837;DHT22;4957;51.412;6.724;2023-08-21T02:48:05;20.60;95.10
9837;DHT22;4957;51.412;6.724;2023-08-21T02:50:31;20.60;95.30
9837;DHT22;4957;51.412;6.724;2023-08-21T02:52:56;20.60;95.20
9837;DHT22;4957;51.412;6.724;2023-08-21T02:55:22;20.60;95.30
9837;DHT22;4957;51.412;6.724;2023-08-21T02:57:48;20.50;95.20
9837;DHT22;4957;51.412;6.724;2023-08-21T03:00:13;20.50;95.40
9837;DHT22;4957;51.412;6.724;2023-08-21T03:02:39;20.50;95.40
9837;DHT22;4957;51.412;6.724;2023-08-21T03:05:09;20.50;95.50
9837;DHT22;4957;51.412;6.724;2023-08-21T03:07:35;20.40;95.60
9837;DHT22;4957;51.412;6.724;2023-08-21T03:10:01;20.40;95.80
9837;DHT22;4957;51.412;6.724;2023-08-21T03:12:28;20.30;95.70
9837;DHT22;4957;51.412;6.724;2023-08-21T03:14:53;20.30;95.90
9837;DHT22;4957;51.412;6.724;2023-08-21T03:17:19;20.20;95.90
9837;DHT22;4957;51.412;6.724;2023-08-21T03:19:45;20.20;95.90
9837;DHT22;4957;51.412;6.724;2023-08-21T03:22:11;20.20;96.10
9837;DHT22;4957;51.412;6.724;2023-08-21T03:24:36;20.20;96.20
9837;DHT22;4957;51.412;6.724;2023-08-21T03:27:02;20.20;96.20
9837;DHT22;4957;51.412;6.724;2023-08-21T03:29:28;20.20;96.20
9837;DHT22;4957;51.412;6.724;2023-08-21T03:31:54;20.20;96.30
9837;DHT22;4957;51.412;6.724;2023-08-21T03:34:20;20.20;96.20
9837;DHT22;4957;51.412;6.724;2023-08-21T03:36:45;20.20;96.20
9837;DHT22;4957;51.412;6.724;2023-08-21T03:39:11;20.20;96.20
9837;DHT22;4957;51.412;6.724;2023-08-21T03:41:37;20.20;96.20
9837;DHT22;4957;51.412;6.724;2023-08-21T03:44:03;20.20;96.20
9837;DHT22;4957;51.412;6.724;2023-08-21T03:46:28;20.20;96.20
9837;DHT22;4957;51.412;6.724;2023-08-21T03:48:54;20.10;96.20
9837;DHT22;4957;51.412;6.724;2023-08-21T03:51:20;20.10;96.30
9837;DHT22;4957;51.412;6.724;2023-08-21T03:53:46;20.00;96.30
9837;DHT22;4957;51.412;6.724;2023-08-21T03:56:11;20.00;96.40
9837;DHT22;4957;51.412;6.724;2023-08-21T03:58:37;20.00;96.40
9837;DHT22;4957;51.412;6.724;2023-08-21T04:01:03;20.00;96.40
9837;DHT22;4957;51.412;6.724;2023-08-21T04:03:29;20.00;96.50
9837;DHT22;4957;51.412;6.724;2023-08-21T04:05:55;19.90;96.50
9837;DHT22;4957;51.412;6.724;2023-08-21T04:08:22;19.90;96.60
9837;DHT22;4957;51.412;6.724;2023-08-21T04:10:48;19.90;96.60
9837;DHT22;4957;51.412;6.724;2023-08-21T04:13:13;19.90;96.90
9837;DHT22;4957;51.412;6.724;2023-08-21T04:15:44;19.90;97.00
9837;DHT22;4957;51.412;6.724;2023-08-21T04:18:10;19.90;97.00
9837;DHT22;4957;51.412;6.724;2023-08-21T04:20:36;19.90;96.80
9837;DHT22;4957;51.412;6.724;2023-08-21T04:23:02;19.90;96.90
9837;DHT22;4957;51.412;6.724;2023-08-21T04:25:28;19.80;97.00
9837;DHT22;4957;51.412;6.724;2023-08-21T04:27:53;19.80;97.00
9837;DHT22;4957;51.412;6.724;2023-08-21T04:30:19;19.80;97.00
9837;DHT22;4957;51.412;6.724;2023-08-21T04:32:45;19.90;97.10
9837;DHT22;4957;51.412;6.724;2023-08-21T04:35:10;19.80;97.30
9837;DHT22;4957;51.412;6.724;2023-08-21T04:37:38;19.80;97.40
9837;DHT22;4957;51.412;6.724;2023-08-21T04:40:04;19.80;97.50
9837;DHT22;4957;51.412;6.724;2023-08-21T04:42:30;19.80;97.60
9837;DHT22;4957;51.412;6.724;2023-08-21T04:44:55;19.80;97.60
9837;DHT22;4957;51.412;6.724;2023-08-21T04:47:25;19.80;97.80
9837;DHT22;4957;51.412;6.724;2023-08-21T04:49:52;19.80;98.00
9837;DHT22;4957;51.412;6.724;2023-08-21T04:52:21;19.80;97.90
9837;DHT22;4957;51.412;6.724;2023-08-21T04:54:48;19.80;98.00
9837;DHT22;4957;51.412;6.724;2023-08-21T04:57:14;19.80;98.10
9837;DHT22;4957;51.412;6.724;2023-08-21T04:59:40;19.80;98.00
9837;DHT22;4957;51.412;6.724;2023-08-21T05:02:06;19.80;98.00
9837;DHT22;4957;51.412;6.724;2023-08-21T05:04:32;19.70;98.10
9837;DHT22;4957;51.412;6.724;2023-08-21T05:06:58;19.80;98.20
9837;DHT22;4957;51.412;6.724;2023-08-21T05:09:24;19.70;98.20
9837;DHT22;4957;51.412;6.724;2023-08-21T05:11:49;19.70;98.20
9837;DHT22;4957;51.412;6.724;2023-08-21T05:14:15;19.70;98.40
9837;DHT22;4957;51.412;6.724;2023-08-21T05:16:41;19.70;98.40
9837;DHT22;4957;51.412;6.724;2023-08-21T05:19:06;19.70;98.40
9837;DHT22;4957;51.412;6.724;2023-08-21T05:21:33;19.70;98.50
9837;DHT22;4957;51.412;6.724;2023-08-21T05:23:58;19.70;98.60
9837;DHT22;4957;51.412;6.724;2023-08-21T05:26:24;19.70;98.60
9837;DHT22;4957;51.412;6.724;2023-08-21T05:28:50;19.70;98.70
9837;DHT22;4957;51.412;6.724;2023-08-21T05:31:15;19.70;98.70
9837;DHT22;4957;51.412;6.724;2023-08-21T05:33:41;19.70;98.80
9837;DHT22;4957;51.412;6.724;2023-08-21T05:36:06;19.70;99.40
9837;DHT22;4957;51.412;6.724;2023-08-21T05:38:32;19.70;99.40
9837;DHT22;4957;51.412;6.724;2023-08-21T05:40:58;19.70;99.40
9837;DHT22;4957;51.412;6.724;2023-08-21T05:43:24;19.80;99.60
9837;DHT22;4957;51.412;6.724;2023-08-21T05:45:49;19.80;99.60
9837;DHT22;4957;51.412;6.724;2023-08-21T05:48:15;19.80;99.70
9837;DHT22;4957;51.412;6.724;2023-08-21T05:50:43;19.90;99.80
9837;DHT22;4957;51.412;6.724;2023-08-21T05:53:08;19.90;99.90
9837;DHT22;4957;51.412;6.724;2023-08-21T05:55:36;19.90;99.90
9837;DHT22;4957;51.412;6.724;2023-08-21T05:58:02;20.00;99.90
9837;DHT22;4957;51.412;6.724;2023-08-21T06:00:28;20.00;99.90
9837;DHT22;4957;51.412;6.724;2023-08-21T06:02:54;20.10;99.90
9837;DHT22;4957;51.412;6.724;2023-08-21T06:05:19;20.20;99.90
9837;DHT22;4957;51.412;6.724;2023-08-21T06:07:45;20.20;99.90
9837;DHT22;4957;51.412;6.724;2023-08-21T06:10:11;20.30;99.90
9837;DHT22;4957;51.412;6.724;2023-08-21T06:12:39;20.30;99.90
9837;DHT22;4957;51.412;6.724;2023-08-21T06:15:05;20.40;99.90
9837;DHT22;4957;51.412;6.724;2023-08-21T06:17:33;20.50;99.90
9837;DHT22;4957;51.412;6.724;2023-08-21T06:19:59;20.60;99.90
9837;DHT22;4957;51.412;6.724;2023-08-21T06:22:25;20.70;99.90
9837;DHT22;4957;51.412;6.724;2023-08-21T06:24:50;20.80;99.80
9837;DHT22;4957;51.412;6.724;2023-08-21T06:27:16;20.90;99.70
9837;DHT22;4957;51.412;6.724;2023-08-21T06:29:42;21.00;99.40
9837;DHT22;4957;51.412;6.724;2023-08-21T06:32:08;21.20;99.30
9837;DHT22;4957;51.412;6.724;2023-08-21T06:34:34;21.30;99.10
9837;DHT22;4957;51.412;6.724;2023-08-21T06:36:59;21.40;98.80
9837;DHT22;4957;51.412;6.724;2023-08-21T06:39:26;21.50;98.80
9837;DHT22;4957;51.412;6.724;2023-08-21T06:41:51;21.60;98.20
9837;DHT22;4957;51.412;6.724;2023-08-21T06:44:17;21.70;97.90
9837;DHT22;4957;51.412;6.724;2023-08-21T06:46:43;21.80;97.60
9837;DHT22;4957;51.412;6.724;2023-08-21T06:49:09;21.90;97.40
9837;DHT22;4957;51.412;6.724;2023-08-21T06:51:35;21.90;97.20
9837;DHT22;4957;51.412;6.724;2023-08-21T06:54:01;22.00;97.10
9837;DHT22;4957;51.412;6.724;2023-08-21T06:56:27;22.10;97.10
9837;DHT22;4957;51.412;6.724;2023-08-21T06:58:52;22.10;97.00
9837;DHT22;4957;51.412;6.724;2023-08-21T07:01:21;22.20;97.00
9837;DHT22;4957;51.412;6.724;2023-08-21T07:03:46;22.30;97.10
9837;DHT22;4957;51.412;6.724;2023-08-21T07:06:12;22.40;97.00
9837;DHT22;4957;51.412;6.724;2023-08-21T07:08:38;22.60;96.90
9837;DHT22;4957;51.412;6.724;2023-08-21T07:11:06;22.70;96.80
9837;DHT22;4957;51.412;6.724;2023-08-21T07:13:36;22.80;96.60
9837;DHT22;4957;51.412;6.724;2023-08-21T07:16:02;22.90;96.20
9837;DHT22;4957;51.412;6.724;2023-08-21T07:18:38;23.10;96.10
9837;DHT22;4957;51.412;6.724;2023-08-21T07:21:03;23.20;95.90
9837;DHT22;4957;51.412;6.724;2023-08-21T07:23:33;23.30;95.60
9837;DHT22;4957;51.412;6.724;2023-08-21T07:26:00;23.40;95.30
9837;DHT22;4957;51.412;6.724;2023-08-21T07:28:26;23.50;95.20
9837;DHT22;4957;51.412;6.724;2023-08-21T07:30:58;23.60;95.10
9837;DHT22;4957;51.412;6.724;2023-08-21T07:33:25;23.80;94.90
9837;DHT22;4957;51.412;6.724;2023-08-21T07:36:00;23.90;94.70
9837;DHT22;4957;51.412;6.724;2023-08-21T07:38:26;24.10;94.60
9837;DHT22;4957;51.412;6.724;2023-08-21T07:41:04;24.20;94.40
9837;DHT22;4957;51.412;6.724;2023-08-21T07:43:31;24.40;94.20
9837;DHT22;4957;51.412;6.724;2023-08-21T07:45:57;24.50;94.20
9837;DHT22;4957;51.412;6.724;2023-08-21T07:48:22;24.70;94.00
9837;DHT22;4957;51.412;6.724;2023-08-21T07:50:52;24.80;93.80
9837;DHT22;4957;51.412;6.724;2023-08-21T07:53:21;25.00;93.60
9837;DHT22;4957;51.412;6.724;2023-08-21T07:55:47;25.20;93.50
9837;DHT22;4957;51.412;6.724;2023-08-21T07:58:12;25.30;93.00
9837;DHT22;4957;51.412;6.724;2023-08-21T08:00:38;25.50;92.80
9837;DHT22;4957;51.412;6.724;2023-08-21T08:03:05;25.70;92.50
9837;DHT22;4957;51.412;6.724;2023-08-21T08:05:31;25.90;92.30
9837;DHT22;4957;51.412;6.724;2023-08-21T08:07:57;26.00;92.10
9837;DHT22;4957;51.412;6.724;2023-08-21T08:10:24;26.10;91.90
9837;DHT22;4957;51.412;6.724;2023-08-21T08:12:50;26.40;91.60
9837;DHT22;4957;51.412;6.724;2023-08-21T08:15:16;26.60;91.30
9837;DHT22;4957;51.412;6.724;2023-08-21T08:17:42;26.70;90.80
9837;DHT22;4957;51.412;6.724;2023-08-21T08:20:08;26.90;90.70
9837;DHT22;4957;51.412;6.724;2023-08-21T08:22:34;27.10;90.00
9837;DHT22;4957;51.412;6.724;2023-08-21T08:25:00;27.30;89.70
9837;DHT22;4957;51.412;6.724;2023-08-21T08:27:25;27.50;89.00
9837;DHT22;4957;51.412;6.724;2023-08-21T08:29:51;27.70;88.30
9837;DHT22;4957;51.412;6.724;2023-08-21T08:32:17;27.90;88.00
9837;DHT22;4957;51.412;6.724;2023-08-21T08:34:42;28.10;87.60
9837;DHT22;4957;51.412;6.724;2023-08-21T08:37:12;28.30;86.80
9837;DHT22;4957;51.412;6.724;2023-08-21T08:39:37;28.50;86.10
9837;DHT22;4957;51.412;6.724;2023-08-21T08:42:05;28.60;85.00
9837;DHT22;4957;51.412;6.724;2023-08-21T08:44:34;28.80;84.20
9837;DHT22;4957;51.412;6.724;2023-08-21T08:47:01;29.00;83.60
9837;DHT22;4957;51.412;6.724;2023-08-21T08:49:27;29.10;82.90
9837;DHT22;4957;51.412;6.724;2023-08-21T08:51:54;29.30;81.80
9837;DHT22;4957;51.412;6.724;2023-08-21T08:54:21;29.50;79.60
9837;DHT22;4957;51.412;6.724;2023-08-21T08:56:47;29.70;78.90
9837;DHT22;4957;51.412;6.724;2023-08-21T08:59:13;29.90;78.50
9837;DHT22;4957;51.412;6.724;2023-08-21T09:01:41;30.10;77.50
9837;DHT22;4957;51.412;6.724;2023-08-21T09:04:07;30.30;76.70
9837;DHT22;4957;51.412;6.724;2023-08-21T09:06:33;30.50;76.20
9837;DHT22;4957;51.412;6.724;2023-08-21T09:08:59;30.60;75.50
9837;DHT22;4957;51.412;6.724;2023-08-21T09:11:25;30.80;74.30
9837;DHT22;4957;51.412;6.724;2023-08-21T09:13:52;31.00;73.80
9837;DHT22;4957;51.412;6.724;2023-08-21T09:16:19;31.20;73.70
9837;DHT22;4957;51.412;6.724;2023-08-21T09:18:49;31.40;72.90
9837;DHT22;4957;51.412;6.724;2023-08-21T09:21:17;31.40;71.90
9837;DHT22;4957;51.412;6.724;2023-08-21T09:23:42;31.60;71.50
9837;DHT22;4957;51.412;6.724;2023-08-21T09:26:18;31.80;70.70
9837;DHT22;4957;51.412;6.724;2023-08-21T09:28:45;32.00;69.80
9837;DHT22;4957;51.412;6.724;2023-08-21T09:31:11;32.10;69.30
9837;DHT22;4957;51.412;6.724;2023-08-21T09:33:37;32.30;68.80
9837;DHT22;4957;51.412;6.724;2023-08-21T09:36:03;32.50;67.60
9837;DHT22;4957;51.412;6.724;2023-08-21T09:38:30;32.60;66.60
9837;DHT22;4957;51.412;6.724;2023-08-21T09:40:59;32.80;66.40
9837;DHT22;4957;51.412;6.724;2023-08-21T09:43:27;32.90;65.70
9837;DHT22;4957;51.412;6.724;2023-08-21T09:45:54;33.00;64.60
9837;DHT22;4957;51.412;6.724;2023-08-21T09:48:24;33.20;63.80
9837;DHT22;4957;51.412;6.724;2023-08-21T09:50:52;33.40;63.10
9837;DHT22;4957;51.412;6.724;2023-08-21T09:53:20;33.50;62.40
9837;DHT22;4957;51.412;6.724;2023-08-21T09:55:48;33.70;61.80
9837;DHT22;4957;51.412;6.724;2023-08-21T09:58:15;33.80;60.90
9837;DHT22;4957;51.412;6.724;2023-08-21T10:00:42;34.00;60.40
9837;DHT22;4957;51.412;6.724;2023-08-21T10:03:10;34.10;59.70
9837;DHT22;4957;51.412;6.724;2023-08-21T10:05:38;34.30;59.00
9837;DHT22;4957;51.412;6.724;2023-08-21T10:08:06;34.40;58.60
9837;DHT22;4957;51.412;6.724;2023-08-21T10:10:36;34.50;58.30
9837;DHT22;4957;51.412;6.724;2023-08-21T10:13:03;34.60;57.80
9837;DHT22;4957;51.412;6.724;2023-08-21T10:15:30;34.70;57.50
9837;DHT22;4957;51.412;6.724;2023-08-21T10:17:56;34.80;56.40
9837;DHT22;4957;51.412;6.724;2023-08-21T10:20:24;35.00;55.70
9837;DHT22;4957;51.412;6.724;2023-08-21T10:22:53;35.00;55.70
9837;DHT22;4957;51.412;6.724;2023-08-21T10:25:22;35.10;55.30
9837;DHT22;4957;51.412;6.724;2023-08-21T10:27:59;35.10;55.00
9837;DHT22;4957;51.412;6.724;2023-08-21T10:30:27;35.10;54.70
9837;DHT22;4957;51.412;6.724;2023-08-21T10:32:55;35.20;54.40
9837;DHT22;4957;51.412;6.724;2023-08-21T10:35:28;35.30;52.90
9837;DHT22;4957;51.412;6.724;2023-08-21T10:38:14;35.40;52.90
9837;DHT22;4957;51.412;6.724;2023-08-21T10:41:06;35.50;52.10
9837;DHT22;4957;51.412;6.724;2023-08-21T10:43:44;35.60;51.90
9837;DHT22;4957;51.412;6.724;2023-08-21T10:46:11;35.60;51.80
9837;DHT22;4957;51.412;6.724;2023-08-21T10:48:37;35.60;51.60
9837;DHT22;4957;51.412;6.724;2023-08-21T10:51:07;35.70;51.10
9837;DHT22;4957;51.412;6.724;2023-08-21T10:53:33;35.70;51.00
9837;DHT22;4957;51.412;6.724;2023-08-21T10:56:05;35.70;50.60
9837;DHT22;4957;51.412;6.724;2023-08-21T10:58:38;35.80;49.70
9837;DHT22;4957;51.412;6.724;2023-08-21T11:01:04;35.80;49.50
9837;DHT22;4957;51.412;6.724;2023-08-21T11:03:29;35.90;49.50
9837;DHT22;4957;51.412;6.724;2023-08-21T11:06:03;36.00;49.60
9837;DHT22;4957;51.412;6.724;2023-08-21T11:08:29;36.10;48.80
9837;DHT22;4957;51.412;6.724;2023-08-21T11:10:56;36.20;49.40
9837;DHT22;4957;51.412;6.724;2023-08-21T11:13:25;36.20;48.30
9837;DHT22;4957;51.412;6.724;2023-08-21T11:16:06;36.20;48.30
9837;DHT22;4957;51.412;6.724;2023-08-21T11:18:32;36.30;48.00
9837;DHT22;4957;51.412;6.724;2023-08-21T11:21:09;36.30;48.00
9837;DHT22;4957;51.412;6.724;2023-08-21T11:23:41;36.30;47.50
9837;DHT22;4957;51.412;6.724;2023-08-21T11:26:11;36.30;47.60
9837;DHT22;4957;51.412;6.724;2023-08-21T11:28:38;36.30;47.30
9837;DHT22;4957;51.412;6.724;2023-08-21T11:31:05;36.30;47.60
9837;DHT22;4957;51.412;6.724;2023-08-21T11:33:31;36.30;48.30
9837;DHT22;4957;51.412;6.724;2023-08-21T11:35:57;36.30;47.90
9837;DHT22;4957;51.412;6.724;2023-08-21T11:38:26;36.40;48.10
9837;DHT22;4957;51.412;6.724;2023-08-21T11:40:56;36.40;47.90
9837;DHT22;4957;51.412;6.724;2023-08-21T11:43:37;36.50;48.10
9837;DHT22;4957;51.412;6.724;2023-08-21T11:46:04;36.50;48.00
9837;DHT22;4957;51.412;6.724;2023-08-21T11:48:31;36.50;48.30
9837;DHT22;4957;51.412;6.724;2023-08-21T11:50:57;36.50;48.50
9837;DHT22;4957;51.412;6.724;2023-08-21T11:53:35;36.50;48.30
9837;DHT22;4957;51.412;6.724;2023-08-21T11:56:02;36.50;47.90
9837;DHT22;4957;51.412;6.724;2023-08-21T11:58:28;36.60;48.70
9837;DHT22;4957;51.412;6.724;2023-08-21T12:00:54;36.60;48.50
9837;DHT22;4957;51.412;6.724;2023-08-21T12:03:20;36.60;48.50
9837;DHT22;4957;51.412;6.724;2023-08-21T12:05:45;36.60;48.30
9837;DHT22;4957;51.412;6.724;2023-08-21T12:08:11;36.70;48.50
9837;DHT22;4957;51.412;6.724;2023-08-21T12:10:37;36.70;48.10
9837;DHT22;4957;51.412;6.724;2023-08-21T12:13:03;36.70;48.00
9837;DHT22;4957;51.412;6.724;2023-08-21T12:15:29;36.70;47.80
9837;DHT22;4957;51.412;6.724;2023-08-21T12:17:54;36.70;47.90
9837;DHT22;4957;51.412;6.724;2023-08-21T12:20:20;36.70;47.80
9837;DHT22;4957;51.412;6.724;2023-08-21T12:22:46;36.70;47.90
9837;DHT22;4957;51.412;6.724;2023-08-21T12:25:13;36.70;48.00
9837;DHT22;4957;51.412;6.724;2023-08-21T12:27:38;36.70;47.90
9837;DHT22;4957;51.412;6.724;2023-08-21T12:30:05;36.60;47.60
9837;DHT22;4957;51.412;6.724;2023-08-21T12:32:31;36.60;47.60
9837;DHT22;4957;51.412;6.724;2023-08-21T12:34:56;36.60;47.30
9837;DHT22;4957;51.412;6.724;2023-08-21T12:37:22;36.50;47.70
9837;DHT22;4957;51.412;6.724;2023-08-21T12:39:48;36.50;47.30
9837;DHT22;4957;51.412;6.724;2023-08-21T12:42:14;36.40;47.90
9837;DHT22;4957;51.412;6.724;2023-08-21T12:44:39;36.40;47.90
9837;DHT22;4957;51.412;6.724;2023-08-21T12:47:05;36.30;47.60
9837;DHT22;4957;51.412;6.724;2023-08-21T12:49:31;36.30;47.60
9837;DHT22;4957;51.412;6.724;2023-08-21T12:51:57;36.20;48.10
9837;DHT22;4957;51.412;6.724;2023-08-21T12:54:23;36.10;47.80
9837;DHT22;4957;51.412;6.724;2023-08-21T12:56:48;36.00;48.10
9837;DHT22;4957;51.412;6.724;2023-08-21T12:59:14;35.90;48.20
9837;DHT22;4957;51.412;6.724;2023-08-21T13:01:40;35.80;48.40
9837;DHT22;4957;51.412;6.724;2023-08-21T13:04:05;35.80;48.50
9837;DHT22;4957;51.412;6.724;2023-08-21T13:06:31;35.70;48.30
9837;DHT22;4957;51.412;6.724;2023-08-21T13:08:57;35.60;48.10
9837;DHT22;4957;51.412;6.724;2023-08-21T13:11:23;35.50;48.40
9837;DHT22;4957;51.412;6.724;2023-08-21T13:13:48;35.40;48.60
9837;DHT22;4957;51.412;6.724;2023-08-21T13:16:14;35.30;48.40
9837;DHT22;4957;51.412;6.724;2023-08-21T13:18:40;35.20;48.60
9837;DHT22;4957;51.412;6.724;2023-08-21T13:21:06;35.10;48.90
9837;DHT22;4957;51.412;6.724;2023-08-21T13:23:32;35.00;49.00
9837;DHT22;4957;51.412;6.724;2023-08-21T13:26:00;35.00;49.10
9837;DHT22;4957;51.412;6.724;2023-08-21T13:28:26;34.90;49.10
9837;DHT22;4957;51.412;6.724;2023-08-21T13:30:52;34.80;49.30
9837;DHT22;4957;51.412;6.724;2023-08-21T13:33:18;34.70;49.20
9837;DHT22;4957;51.412;6.724;2023-08-21T13:35:45;34.60;49.00
9837;DHT22;4957;51.412;6.724;2023-08-21T13:38:12;34.60;49.20
9837;DHT22;4957;51.412;6.724;2023-08-21T13:40:38;34.50;49.40
9837;DHT22;4957;51.412;6.724;2023-08-21T13:43:04;34.30;49.90
9837;DHT22;4957;51.412;6.724;2023-08-21T13:45:29;34.30;49.90
9837;DHT22;4957;51.412;6.724;2023-08-21T13:47:55;34.20;50.00
9837;DHT22;4957;51.412;6.724;2023-08-21T13:50:21;34.10;50.30
9837;DHT22;4957;51.412;6.724;2023-08-21T13:52:47;34.00;50.40
9837;DHT22;4957;51.412;6.724;2023-08-21T13:55:13;33.90;50.30
9837;DHT22;4957;51.412;6.724;2023-08-21T13:57:39;33.90;50.70
9837;DHT22;4957;51.412;6.724;2023-08-21T14:00:07;33.80;50.80
9837;DHT22;4957;51.412;6.724;2023-08-21T14:02:34;33.70;50.80
9837;DHT22;4957;51.412;6.724;2023-08-21T14:05:00;33.70;51.00
9837;DHT22;4957;51.412;6.724;2023-08-21T14:07:26;33.60;50.70
9837;DHT22;4957;51.412;6.724;2023-08-21T14:09:52;33.40;50.60
9837;DHT22;4957;51.412;6.724;2023-08-21T14:12:19;33.40;51.20
9837;DHT22;4957;51.412;6.724;2023-08-21T14:14:44;33.30;50.80
9837;DHT22;4957;51.412;6.724;2023-08-21T14:17:10;33.10;51.20
9837;DHT22;4957;51.412;6.724;2023-08-21T14:19:36;33.00;51.90
9837;DHT22;4957;51.412;6.724;2023-08-21T14:22:01;33.00;52.00
9837;DHT22;4957;51.412;6.724;2023-08-21T14:24:28;32.90;52.20
9837;DHT22;4957;51.412;6.724;2023-08-21T14:26:54;32.90;52.00
9837;DHT22;4957;51.412;6.724;2023-08-21T14:29:20;32.80;52.10
9837;DHT22;4957;51.412;6.724;2023-08-21T14:31:46;32.80;52.50
9837;DHT22;4957;51.412;6.724;2023-08-21T14:34:13;32.80;52.60
9837;DHT22;4957;51.412;6.724;2023-08-21T14:36:39;32.70;52.60
9837;DHT22;4957;51.412;6.724;2023-08-21T14:39:04;32.60;52.90
9837;DHT22;4957;51.412;6.724;2023-08-21T14:41:31;32.60;53.20
9837;DHT22;4957;51.412;6.724;2023-08-21T14:43:57;32.50;53.20
9837;DHT22;4957;51.412;6.724;2023-08-21T14:46:23;32.50;53.40
9837;DHT22;4957;51.412;6.724;2023-08-21T14:48:48;32.40;53.40
9837;DHT22;4957;51.412;6.724;2023-08-21T14:51:14;32.30;53.30
9837;DHT22;4957;51.412;6.724;2023-08-21T14:53:40;32.30;53.30
9837;DHT22;4957;51.412;6.724;2023-08-21T14:56:05;32.20;53.30
9837;DHT22;4957;51.412;6.724;2023-08-21T14:58:31;32.20;53.40
9837;DHT22;4957;51.412;6.724;2023-08-21T15:00:57;32.10;53.70
9837;DHT22;4957;51.412;6.724;2023-08-21T15:03:22;32.10;53.90
9837;DHT22;4957;51.412;6.724;2023-08-21T15:05:48;32.10;53.90
9837;DHT22;4957;51.412;6.724;2023-08-21T15:08:13;32.00;54.00
9837;DHT22;4957;51.412;6.724;2023-08-21T15:10:39;31.90;54.10
9837;DHT22;4957;51.412;6.724;2023-08-21T15:13:05;31.90;54.10
9837;DHT22;4957;51.412;6.724;2023-08-21T15:15:30;31.90;54.10
9837;DHT22;4957;51.412;6.724;2023-08-21T15:17:56;31.90;54.20
9837;DHT22;4957;51.412;6.724;2023-08-21T15:20:22;31.80;54.20
9837;DHT22;4957;51.412;6.724;2023-08-21T15:22:47;31.80;54.30
9837;DHT22;4957;51.412;6.724;2023-08-21T15:25:15;31.70;53.90
9837;DHT22;4957;51.412;6.724;2023-08-21T15:27:41;31.70;54.10
9837;DHT22;4957;51.412;6.724;2023-08-21T15:30:07;31.70;54.20
9837;DHT22;4957;51.412;6.724;2023-08-21T15:32:33;31.70;54.50
9837;DHT22;4957;51.412;6.724;2023-08-21T15:35:01;31.70;54.40
9837;DHT22;4957;51.412;6.724;2023-08-21T15:37:27;31.70;54.20
9837;DHT22;4957;51.412;6.724;2023-08-21T15:39:53;31.60;54.30
9837;DHT22;4957;51.412;6.724;2023-08-21T15:42:19;31.60;54.10
9837;DHT22;4957;51.412;6.724;2023-08-21T15:44:45;31.50;54.00
9837;DHT22;4957;51.412;6.724;2023-08-21T15:47:10;31.50;54.10
9837;DHT22;4957;51.412;6.724;2023-08-21T15:49:36;31.50;54.10
9837;DHT22;4957;51.412;6.724;2023-08-21T15:52:03;31.50;54.10
9837;DHT22;4957;51.412;6.724;2023-08-21T15:54:33;31.40;54.10
9837;DHT22;4957;51.412;6.724;2023-08-21T15:57:02;31.40;53.90
9837;DHT22;4957;51.412;6.724;2023-08-21T15:59:28;31.40;54.10
9837;DHT22;4957;51.412;6.724;2023-08-21T16:01:54;31.30;54.10